METAR Data
IDs: Format: Raw Decoded Include TAF

Data at: 1154 UTC 23 Sep 2018

KCIR 231135Z AUTO 02003KT 7SM OVC007 16/16 A3006 RMK AO2 T01600160
KCIR 231115Z AUTO 02005KT 7SM DZ OVC007 16/16 A3005 RMK AO2 T01600160
KCIR 231055Z AUTO 02004KT 5SM RA OVC007 16/16 A3004 RMK AO2 P0001 T01600160
KCIR 231035Z AUTO 02004KT 7SM RA OVC007 16/16 A3004 RMK AO2 T01600160
KCIR 231015Z AUTO 01004KT 10SM OVC007 16/16 A3004 RMK AO2 T01600160
KCIR 230955Z AUTO 02004KT 10SM OVC007 16/16 A3005 RMK AO2 T01600160
KCIR 230935Z AUTO 03006KT 10SM OVC005 16/16 A3003 RMK AO2 T01600160
KCIR 230915Z AUTO 03007KT 7SM BKN005 OVC010 16/16 A3003 RMK AO2 T01580158
KCIR 230900Z AUTO 03005KT 7SM BKN005 OVC010 16/16 A3003 RMK AO2 T01580158
KCIR 230835Z AUTO 03006KT 7SM -DZ OVC010 16/16 A3003 RMK AO2 T01600160
KCIR 230815Z AUTO 36004KT 7SM OVC008 16/16 A3005 RMK AO2 T01600158
KCIR 230755Z AUTO 35004KT 10SM OVC008 16/16 A3005 RMK AO2 T01600160
KCIR 230735Z AUTO 02004KT 10SM OVC008 16/16 A3005 RMK AO2 T01600158
KCIR 230715Z AUTO 01005KT 10SM OVC008 16/16 A3005 RMK AO2 T01600158
KCIR 230655Z AUTO 05006KT 7SM OVC008 16/16 A3005 RMK AO2 T01580158
KCIR 230635Z AUTO 36005KT 10SM OVC008 16/16 A3006 RMK AO2 T01580158
KCIR 230615Z AUTO 02005KT 10SM OVC008 16/16 A3006 RMK AO2 T01570157
KCIR 230555Z AUTO 03004KT 10SM -DZ OVC008 16/16 A3006 RMK AO2 T01570156 10160 20153 402070149
KCIR 230535Z AUTO 03004KT 10SM -RA OVC008 16/16 A3007 RMK AO2 T01560155
KCIR 230515Z AUTO 01005KT 10SM OVC008 16/16 A3008 RMK AO2 T01560155
KCIR 230455Z AUTO 03006KT 10SM OVC008 16/16 A3007 RMK AO2 T01560155
KCIR 230435Z AUTO 05006KT 10SM OVC008 16/15 A3008 RMK AO2 T01560153
KCIR 230415Z AUTO 36006KT 10SM OVC008 16/15 A3009 RMK AO2 T01550152
KCIR 230355Z AUTO 03007KT 10SM OVC010 16/15 A3009 RMK AO2 T01550151
KCIR 230335Z AUTO 02009KT 10SM BKN010 BKN021 OVC040 15/15 A3009 RMK AO2 T01530151
KCIR 230315Z AUTO 04009KT 10SM SCT010 BKN021 OVC038 15/15 A3008 RMK AO2 T01540150
KCIR 230255Z AUTO 03010KT 10SM SCT010 OVC021 16/15 A3010 RMK AO2 T01550150
KCIR 230235Z AUTO 02009KT 10SM OVC021 16/15 A3011 RMK AO2 T01560151
KCIR 230215Z AUTO 03007KT 10SM OVC017 16/15 A3012 RMK AO2 T01560152
KCIR 230155Z AUTO 02009KT 10SM SCT010 OVC017 16/16 A3011 RMK AO2 T01570155
KCIR 230135Z AUTO 01008KT 10SM OVC011 16/16 A3011 RMK AO2 T01570155
KCIR 230115Z AUTO 02007KT 10SM OVC009 16/16 A3011 RMK AO2 T01570155
KCIR 230055Z AUTO 02008KT 10SM BKN009 OVC015 16/16 A3011 RMK AO2 T01600157
KCIR 230035Z AUTO 36008KT 10SM SCT007 OVC015 16/16 A3010 RMK AO2 T01600160
KCIR 230015Z AUTO 01006KT 10SM RA SCT009 OVC015 16/16 A3010 RMK AO2 T01600159
KCIR 222355Z AUTO 01006KT 10SM SCT009 OVC013 16/16 A3011 RMK AO2 60050 T01600157 10166 20160
KCIR 222335Z AUTO 01006KT 10SM OVC009 16/16 A3011 RMK AO2 T01620162
KCIR 222315Z AUTO 01006KT 10SM -DZ OVC009 16/16 A3010 RMK AO2 T01620161
KCIR 222255Z AUTO 02006KT 10SM -DZ OVC009 17/17 A3010 RMK AO2 P0001 T01650165
KCIR 222235Z AUTO 02007KT 7SM DZ OVC007 17/17 A3010 RMK AO2 P0001 T01650165
KCIR 222215Z AUTO 02007KT 10SM DZ OVC007 17/17 A3010 RMK AO2 T01650165
KCIR 222155Z AUTO 02007KT 10SM DZ OVC007 17/17 A3010 RMK AO2 P0006 T01650165
KCIR 222135Z AUTO 02005KT 7SM RA BKN007 BKN010 OVC050 17/17 A3010 RMK AO2 P0005 T01650165
KCIR 222115Z AUTO 03008KT 4SM RA BKN007 BKN010 OVC048 16/16 A3010 RMK AO2 P0003 T01640164
KCIR 222055Z AUTO 02008KT 3SM +RA BKN005 OVC033 16/16 A3011 RMK AO2 P0010 60043 T01630163
KCIR 222035Z AUTO 03007KT 4SM +RA OVC005 17/17 A3010 RMK AO2 P0005 T01650165
KCIR 222015Z AUTO 03008KT 5SM -RA OVC005 17/17 A3011 RMK AO2 P0003 T01650165
KCIR 221955Z AUTO 03009G14KT 3SM +RA OVC005 16/16 A3011 RMK AO2 P0019 T01620162
KCIR 221935Z AUTO 01010G14KT 4SM RA BKN005 BKN011 OVC049 16/16 A3011 RMK AO2 P0011 T01640164
KCIR 221915Z AUTO 03011KT 3SM RA BKN007 BKN026 OVC049 17/17 A3012 RMK AO2 P0006 T01650165
KCIR 221855Z AUTO 01008KT 3SM RA OVC007 17/17 A3015 RMK AO2 P0014 T01650165
KCIR 221835Z AUTO 36004KT 3SM RA OVC007 17/17 A3015 RMK AO2 P0009 T01650165
KCIR 221815Z AUTO 02006KT 4SM RA OVC009 17/17 A3015 RMK AO2 P0003 T01650165
KCIR 221755Z AUTO 03006KT 5SM RA OVC009 17/16 A3015 RMK AO2 P0006 60044 T01650163 10165 20149
KCIR 221735Z AUTO 02005KT 7SM -RA OVC009 17/16 A3015 RMK AO2 P0004 T01650163
KCIR 221715Z AUTO 02007KT 7SM RA OVC009 16/16 A3015 RMK AO2 P0002 T01630161
KCIR 221655Z AUTO 03008KT 10SM RA OVC009 16/16 A3015 RMK AO2 P0002 T01630161
KCIR 221635Z AUTO 03008KT 7SM RA BKN009 BKN023 OVC065 16/16 A3016 RMK AO2 P0001 T01620160
KCIR 221615Z AUTO 03010KT 10SM DZ BKN012 BKN049 OVC085 16/16 A3016 RMK AO2 T01610160
KCIR 221555Z AUTO 03011G15KT 10SM -RA SCT009 BKN075 OVC100 16/16 A3016 RMK AO2 P0005 T01590158
KCIR 221535Z AUTO 03010KT 10SM -RA SCT010 BKN075 OVC085 16/16 A3017 RMK AO2 P0004 T01580157
KCIR 221515Z AUTO 04010KT 7SM RA SCT048 BKN050 OVC075 16/16 A3018 RMK AO2 P0003 T01570157
KCIR 221455Z AUTO 03007KT 5SM RA SCT035 BKN055 OVC065 16/16 A3019 RMK AO2 P0007 60030 T01560155
KCIR 221435Z AUTO 03004KT 7SM -RA OVC033 16/15 A3020 RMK AO2 P0003 T01560154
KCIR 221415Z AUTO 02006KT 10SM RA BKN031 OVC090 16/15 A3019 RMK AO2 P0001 T01550151
KCIR 221355Z AUTO 03007KT 10SM -RA SCT080 OVC090 16/15 A3017 RMK AO2 P0008 T01550152
KCIR 221335Z AUTO 04007KT 7SM -RA SCT018 BKN070 OVC090 15/15 A3017 RMK AO2 P0007 T01520152
KCIR 221315Z AUTO 04005KT 4SM +RA SCT018 BKN080 OVC090 15/15 A3018 RMK AO2 P0004 T01510150
KCIR 221255Z AUTO 03006KT 7SM RA OVC080 15/15 A3018 RMK AO2 P0015 T01500150
KCIR 221235Z AUTO 04005KT 5SM RA SCT036 SCT046 OVC080 15/15 A3017 RMK AO2 P0011 T01500147
KCIR 221215Z AUTO 03009KT 7SM RA SCT036 SCT042 OVC080 15/15 A3017 RMK AO2 P0003 T01500148
KCIR 221155Z AUTO 03009KT 5SM RA SCT042 BKN050 OVC070 15/15 A3016 RMK AO2 P0044 60060 70060 T01490147 10207 20149
KCIR 221135Z AUTO 02008KT 340V040 7SM +RA SCT023 BKN043 OVC050 15/15 A3016 RMK AO2 P0031 T01500149
KCIR 221115Z AUTO 01011KT 4SM +RA SCT023 BKN031 OVC060 15/15 A3015 RMK AO2 P0017 T01520150
KCIR 221055Z AUTO 34009KT 5SM +RA SCT035 BKN044 OVC060 16/15 A3017 RMK AO2 P0008 T01560151
KCIR 221035Z AUTO 36005KT 10SM -RA OVC050 16/15 A3016 RMK AO2 P0001 T01600149
KCIR 221015Z AUTO 01006KT 10SM -DZ SCT039 OVC050 16/15 A3015 RMK AO2 LTG DSNT S T01600150
KCIR 220955Z AUTO 35009KT 10SM -DZ BKN039 OVC050 16/15 A3015 RMK AO2 P0002 T01600150
KCIR 220935Z AUTO 36006KT 10SM RA BKN050 OVC095 16/15 A3015 RMK AO2 P0002 T01600152
KCIR 220915Z AUTO 35008KT 10SM -RA SCT055 SCT065 OVC095 16/15 A3014 RMK AO2 P0002 T01610151
KCIR 220855Z AUTO 36006KT 10SM RA BKN065 OVC085 16/15 A3015 RMK AO2 P0005 60005 T01630151
KCIR 220835Z AUTO 35009KT 7SM RA SCT045 BKN070 OVC085 17/16 A3015 RMK AO2 P0002 T01700155
KCIR 220815Z AUTO 33004KT 10SM RA BKN045 OVC055 19/14 A3016 RMK AO2 T01900142
KCIR 220755Z AUTO 02005KT 10SM BKN055 OVC090 20/13 A3014 RMK AO2 T01950133
KCIR 220735Z AUTO 02008KT 10SM BKN055 BKN090 BKN120 20/13 A3013 RMK AO2 T01950131
KCIR 220715Z AUTO 02007KT 10SM SCT055 BKN090 20/13 A3013 RMK AO2 T01990130
KCIR 220655Z AUTO 02009G15KT 10SM OVC090 20/13 A3013 RMK AO2 T02000130
KCIR 220635Z AUTO 01008KT 10SM BKN100 OVC120 20/14 A3014 RMK AO2 T02020135
KCIR 220615Z AUTO 01009G15KT 10SM BKN100 OVC120 21/14 A3014 RMK AO2 LTG DSNT S T02050141
KCIR 220555Z AUTO 02008KT 10SM BKN090 OVC120 21/15 A3014 RMK AO2 T02070148 10243 20206 403120206
KCIR 220530Z AUTO 01007KT 10SM BKN120 21/15 A3014 RMK AO2 T02100151
KCIR 220515Z AUTO 36008KT 10SM SCT120 21/15 A3015 RMK AO2 T02130151
KCIR 220455Z AUTO 01009G15KT 10SM SCT120 22/15 A3014 RMK AO2 T02170154
KCIR 220435Z AUTO 01009G14KT 10SM SCT120 22/16 A3014 RMK AO2 T02200164
KCIR 220415Z AUTO 36006KT 10SM CLR 22/17 A3013 RMK AO2 T02210169
KCIR 220355Z AUTO 36007KT 10SM CLR 23/17 A3014 RMK AO2 LTG DSNT S T02250174
KCIR 220335Z AUTO 35009KT 10SM CLR 23/18 A3013 RMK AO2 LTG DSNT SE T02300179
KCIR 220315Z AUTO 36007KT 10SM CLR 23/18 A3012 RMK AO2 T02320184
KCIR 220255Z AUTO 36006KT 10SM CLR 24/19 A3011 RMK AO2 T02350189
KCIR 220235Z AUTO 36007KT 10SM CLR 24/20 A3010 RMK AO2 T02350195
KCIR 220215Z AUTO 35006KT 10SM CLR 24/20 A3010 RMK AO2 T02360204
KCIR 220155Z AUTO 34006KT 10SM CLR 23/21 A3009 RMK AO2 LTG DSNT SE T02330210
KCIR 220135Z AUTO 34004KT 10SM CLR 23/21 A3008 RMK AO2 T02310210
KCIR 220115Z AUTO 00000KT 10SM CLR 23/21 A3008 RMK AO2 T02300212
KCIR 220055Z AUTO 36003KT 10SM CLR 23/21 A3007 RMK AO2 T02330211
KCIR 220035Z AUTO 00000KT 10SM CLR 24/21 A3007 RMK AO2 T02360213
KCIR 220015Z AUTO 33003KT 10SM CLR 24/21 A3007 RMK AO2 T02380212
KCIR 212355Z AUTO 34004KT 10SM CLR 24/21 A3005 RMK AO2 T02430210 10312 20243